Terminal Aerodrome Forecast
Issued by NWS

Home | Current Version | Previous Version | Text Only | Print | Product List | Glossary Off
Versions: 1 2 3 4 5 6 7 8 9 10 11 12 13 14 15 16 17 18 19 20 21 22 23 24 25 26 27 28 29 30 31 32

000
FTUS43 KGRB 151100
TAFRHI
TAF
KRHI 151123Z 1512/1612 VRB03KT P6SM SCT050 OVC120
      TEMPO 1512/1514 4SM BR BKN050
     FM151400 28006KT P6SM SCT050 OVC070
     FM151900 30007KT P6SM SCT050 BKN070
     FM152200 29006KT P6SM SKC
     FM160100 VRB03KT P6SM SKC=

USA.gov is the U.S. government's official web portal to all federal, state and local government web resources and services.